Pagrindinis puslapis
METAR-TAF:

METAR-TAF

Oro uostai :

Wadi ad-Dawasir, Saudo Arabija

platuma: 20-30N, ilguma: 045-12E, Aukštis: 624 m

Dabartinis oras

Ataskaita buvo paskelbta 1 valandą ir 5 minutes, ne 09:00 UTC
Vėjas 6 kt iš Pietų/Pietryčių
Temperatūra 28°C
Drėgmė 22%
Slėgis 1015 hPa
Matomumas 10 km arba daugiau
nėra debesų žemiau 1500 m ir nėra kamuolinių lietaus debesų

METAR: OEWD 070900Z 15006KT CAVOK 28/04 Q1015

Laikas: 13:05 (10:05 UTC)

Prognozė

Ataskaita buvo paskelbta 11 valandos ir 5 minutes, ne 23:00 UTC
Prognozė galioja nuo 07 metu 00 UTC su 08 metu 06 UTC
Vėjas 3 kt nuo kintamojo kryptimis
Matomumas 10 km arba daugiau
nėra debesų žemiau 1500 m ir nėra kamuolinių lietaus debesų
Tapsmas
nuo 07 metu 08 UTC su 07 metu 10 UTC
Vėjas 12 kt iš Rytų/Pietryčių
Matomumas: 7000 m
Tapsmas
nuo 08 metu 00 UTC su 08 metu 02 UTC
Vėjas 8 kt iš Rytų
Matomumas 10 km arba daugiau
nėra debesų žemiau 1500 m ir nėra kamuolinių lietaus debesų

TAF: OEWD 062300Z 0700/0806 VRB03KT CAVOK BECMG 0708/0710 12012KT 7000 NSC BECMG 0800/0802 10008KT CAVOK

Orai ataskaitas ir orų prognozės (METAR, TAF).

turimą stotys yra geltonos ir raudonos taškus žemėlapyje.

Perkelti pele per norėdami pamatyti stoties vardą.

Tada spustelėkite, norėdami matyti oro stebėjimo ir prognozės.

Norėdami pakeisti žemėlapį: spustelėkite ant žalios mygtukų su juodo kryžiaus žemyn,; žalią mygtuką su brūkšneliu, jei norite nutolinti; arba žalių rodyklių gretimoms žemėlapius.


METAR-TAF: